Time;durP1;ratioP1;P1;durP2;ratioP2;P2;SDS_P1;SDS_P2;PMS_P1;PMS_P2;Temp;Humidity;BMP_temperature;BMP_pressure;BME280_temperature;BME280_humidity;BME280_pressure;Samples;Min_cycle;Max_cycle;Signal;HPM_P1;HPM_P2
2021/03/07 00:00:22;;;;;;;38.47;19.03;;;;;;;;;;5055630;28;20261;-90
2021/03/07 00:02:48;;;;;;;52.43;26.43;;;;;;;;;;5054156;28;20239;-89
2021/03/07 00:05:15;;;;;;;51.83;24.30;;;;;;;;;;5055286;28;20199;-89
2021/03/07 00:07:40;;;;;;;38.33;20.03;;;;;;;;;;5054876;28;20256;-90
2021/03/07 00:10:08;;;;;;;38.33;19.93;;;;;;;;;;5055575;28;20258;-90
2021/03/07 00:12:33;;;;;;;40.33;20.00;;;;;;;;;;5053559;28;20180;-89
2021/03/07 00:14:59;;;;;;;29.53;15.70;;;;;;;;;;5055276;28;20237;-89
2021/03/07 00:17:25;;;;;;;34.63;18.97;;;;;;;;;;5055330;28;20179;-89
2021/03/07 00:19:51;;;;;;;20.83;13.03;;;;;;;;;;5055554;28;20164;-90
2021/03/07 00:22:16;;;;;;;23.13;14.97;;;;;;;;;;5054825;28;20263;-90
2021/03/07 00:24:41;;;;;;;28.63;14.30;;;;;;;;;;5054242;28;20183;-90
2021/03/07 00:27:07;;;;;;;21.40;13.73;;;;;;;;;;5053598;28;20205;-89
2021/03/07 00:29:32;;;;;;;29.87;16.30;;;;;;;;;;5055204;28;20168;-89
2021/03/07 00:31:58;;;;;;;23.67;13.40;;;;;;;;;;5054120;28;20652;-90
2021/03/07 00:34:23;;;;;;;30.60;17.27;;;;;;;;;;5054757;28;20618;-90
2021/03/07 00:36:48;;;;;;;32.23;17.73;;;;;;;;;;5054233;28;20183;-89
2021/03/07 00:39:14;;;;;;;19.70;12.63;;;;;;;;;;5053678;28;20650;-89
2021/03/07 00:41:41;;;;;;;20.23;13.10;;;;;;;;;;5055044;28;20200;-90
2021/03/07 00:44:07;;;;;;;22.67;13.50;;;;;;;;;;5053904;28;20603;-90
2021/03/07 00:46:33;;;;;;;22.37;12.87;;;;;;;;;;5053254;28;20263;-90
2021/03/07 00:48:58;;;;;;;22.27;13.63;;;;;;;;;;5037466;28;20257;-89
2021/03/07 00:51:23;;;;;;;19.80;13.00;;;;;;;;;;5053766;28;20184;-88
2021/03/07 00:53:49;;;;;;;29.77;15.30;;;;;;;;;;5054515;28;20215;-90
2021/03/07 00:56:14;;;;;;;34.43;17.70;;;;;;;;;;5053763;28;20692;-90
2021/03/07 00:58:39;;;;;;;31.07;16.00;;;;;;;;;;5054556;28;20168;-89
2021/03/07 01:01:05;;;;;;;28.03;15.70;;;;;;;;;;5053657;28;20247;-90
2021/03/07 01:03:30;;;;;;;26.20;15.53;;;;;;;;;;5055227;28;20259;-90
2021/03/07 01:05:56;;;;;;;23.10;14.00;;;;;;;;;;5054845;28;20237;-90
2021/03/07 01:08:21;;;;;;;31.63;15.63;;;;;;;;;;5055021;28;20210;-89
2021/03/07 01:10:46;;;;;;;32.60;17.20;;;;;;;;;;5054804;28;20598;-89
2021/03/07 01:13:13;;;;;;;25.03;12.93;;;;;;;;;;5054880;28;20171;-90
2021/03/07 01:15:39;;;;;;;22.40;13.50;;;;;;;;;;5054006;28;20246;-90
2021/03/07 01:18:05;;;;;;;21.33;12.73;;;;;;;;;;5054554;28;20164;-90
2021/03/07 01:20:30;;;;;;;21.60;12.63;;;;;;;;;;5053533;28;20538;-89
2021/03/07 01:22:56;;;;;;;24.47;14.17;;;;;;;;;;5054711;28;20190;-89
2021/03/07 01:25:23;;;;;;;19.83;13.50;;;;;;;;;;5055229;28;20243;-90
2021/03/07 01:27:48;;;;;;;17.80;12.00;;;;;;;;;;5054594;28;20172;-89
2021/03/07 01:30:15;;;;;;;22.47;14.23;;;;;;;;;;5055121;28;20171;-89
2021/03/07 01:32:41;;;;;;;18.20;12.23;;;;;;;;;;5053691;28;20172;-89
2021/03/07 01:35:06;;;;;;;16.90;11.50;;;;;;;;;;5055241;28;20624;-90
2021/03/07 01:37:32;;;;;;;14.90;10.37;;;;;;;;;;5053043;28;20258;-89
2021/03/07 01:39:57;;;;;;;16.43;11.13;;;;;;;;;;5054373;28;20645;-90
2021/03/07 01:42:22;;;;;;;13.60;10.03;;;;;;;;;;5054320;28;20175;-90
2021/03/07 01:44:48;;;;;;;15.27;9.97;;;;;;;;;;5054313;28;20176;-90
2021/03/07 01:47:16;;;;;;;19.23;11.63;;;;;;;;;;5054485;28;20176;-90
2021/03/07 01:49:42;;;;;;;17.37;10.97;;;;;;;;;;5052928;28;20181;-89
2021/03/07 01:52:07;;;;;;;15.57;10.47;;;;;;;;;;5054436;28;20176;-89
2021/03/07 01:54:32;;;;;;;16.57;9.83;;;;;;;;;;5054525;28;20168;-89
2021/03/07 01:56:58;;;;;;;15.17;10.10;;;;;;;;;;5054447;28;20172;-90
2021/03/07 01:59:24;;;;;;;15.03;10.87;;;;;;;;;;5054378;28;20206;-89
2021/03/07 02:01:50;;;;;;;17.70;11.77;;;;;;;;;;5052390;28;20270;-89
2021/03/07 02:04:15;;;;;;;16.70;10.30;;;;;;;;;;5054068;28;20175;-90
2021/03/07 02:06:41;;;;;;;18.67;9.93;;;;;;;;;;5054067;28;20175;-90
2021/03/07 02:09:06;;;;;;;16.17;9.83;;;;;;;;;;5053984;28;20195;-89
2021/03/07 02:11:32;;;;;;;15.80;9.90;;;;;;;;;;5053797;28;20677;-90
2021/03/07 02:13:58;;;;;;;19.00;10.40;;;;;;;;;;5053447;28;20250;-89
2021/03/07 02:16:24;;;;;;;13.77;9.57;;;;;;;;;;5053756;28;20195;-90
2021/03/07 02:18:51;;;;;;;12.87;10.10;;;;;;;;;;5053479;28;20584;-90
2021/03/07 02:21:16;;;;;;;16.97;10.70;;;;;;;;;;5053826;28;20290;-90
2021/03/07 02:23:47;;;;;;;19.13;12.00;;;;;;;;;;5053471;28;20215;-90
2021/03/07 02:26:13;;;;;;;12.40;9.27;;;;;;;;;;5053968;28;20586;-89
2021/03/07 02:28:38;;;;;;;15.33;9.83;;;;;;;;;;5053725;28;20202;-90
2021/03/07 02:31:04;;;;;;;15.27;10.13;;;;;;;;;;5054553;28;20588;-90
2021/03/07 02:33:33;;;;;;;15.47;10.53;;;;;;;;;;5058225;28;20172;-90
2021/03/07 02:36:08;;;;;;;13.60;9.33;;;;;;;;;;5057833;28;20571;-90
2021/03/07 02:38:35;;;;;;;22.20;13.57;;;;;;;;;;5058190;28;20664;-90
2021/03/07 02:41:01;;;;;;;12.03;8.37;;;;;;;;;;5056416;28;20203;-90
2021/03/07 02:43:28;;;;;;;11.90;7.90;;;;;;;;;;5057462;28;20176;-89
2021/03/07 02:45:55;;;;;;;12.50;8.13;;;;;;;;;;5057439;28;20247;-90
2021/03/07 02:48:21;;;;;;;13.20;8.13;;;;;;;;;;5057686;28;20199;-90
2021/03/07 02:50:47;;;;;;;14.30;8.50;;;;;;;;;;5057431;28;20199;-90
2021/03/07 02:53:17;;;;;;;13.90;8.70;;;;;;;;;;5057542;28;20199;-90
2021/03/07 02:55:45;;;;;;;11.83;7.83;;;;;;;;;;5056204;28;20203;-89
2021/03/07 02:58:12;;;;;;;12.97;8.27;;;;;;;;;;5056738;28;20183;-91
2021/03/07 03:00:38;;;;;;;13.53;9.00;;;;;;;;;;5057366;28;20290;-91
2021/03/07 03:03:08;;;;;;;12.80;8.63;;;;;;;;;;5057737;28;20239;-91
2021/03/07 03:05:34;;;;;;;9.13;7.53;;;;;;;;;;5056648;28;20198;-91
2021/03/07 03:08:01;;;;;;;10.73;7.83;;;;;;;;;;5057455;28;20611;-91
2021/03/07 03:10:26;;;;;;;12.03;8.17;;;;;;;;;;5056933;28;20179;-90
2021/03/07 03:12:52;;;;;;;11.33;7.80;;;;;;;;;;5057372;28;20172;-90
2021/03/07 03:15:17;;;;;;;10.93;7.47;;;;;;;;;;5057157;28;20573;-90
2021/03/07 03:17:43;;;;;;;11.77;8.70;;;;;;;;;;5056851;28;20202;-90
2021/03/07 03:20:16;;;;;;;8.40;7.10;;;;;;;;;;5057082;28;20504;-90
2021/03/07 03:22:44;;;;;;;12.13;8.90;;;;;;;;;;5057049;28;20255;-90
2021/03/07 03:25:10;;;;;;;7.73;6.33;;;;;;;;;;5056913;28;20168;-90
2021/03/07 03:27:36;;;;;;;11.57;7.87;;;;;;;;;;5056847;28;20692;-90
2021/03/07 03:30:05;;;;;;;13.37;9.00;;;;;;;;;;5055433;28;20167;-90
2021/03/07 03:32:31;;;;;;;9.13;7.30;;;;;;;;;;5056471;28;20191;-90
2021/03/07 03:34:57;;;;;;;10.90;6.80;;;;;;;;;;5056825;28;20607;-90
2021/03/07 03:37:22;;;;;;;11.47;6.77;;;;;;;;;;5056492;28;20549;-90
2021/03/07 03:39:48;;;;;;;7.93;7.03;;;;;;;;;;5056831;28;20199;-90
2021/03/07 03:42:14;;;;;;;9.33;7.20;;;;;;;;;;5055498;28;20200;-90
2021/03/07 03:44:39;;;;;;;9.50;6.53;;;;;;;;;;5056342;28;20175;-90
2021/03/07 03:47:12;;;;;;;10.83;7.50;;;;;;;;;;5055333;28;20504;-89
2021/03/07 03:49:53;;;;;;;7.63;6.63;;;;;;;;;;5056509;28;20214;-89
2021/03/07 03:52:20;;;;;;;9.23;7.53;;;;;;;;;;5056481;28;20245;-88
2021/03/07 03:54:49;;;;;;;9.33;6.80;;;;;;;;;;5056416;28;20164;-88
2021/03/07 03:57:17;;;;;;;7.47;6.60;;;;;;;;;;5056007;28;20176;-89
2021/03/07 03:59:43;;;;;;;9.23;6.77;;;;;;;;;;5055917;28;20172;-89
2021/03/07 04:02:09;;;;;;;9.53;7.20;;;;;;;;;;5054959;28;20243;-90
2021/03/07 04:04:35;;;;;;;10.10;7.43;;;;;;;;;;5055991;28;20222;-90
2021/03/07 04:07:01;;;;;;;9.10;7.40;;;;;;;;;;5055614;28;20183;-91
2021/03/07 04:09:26;;;;;;;8.80;6.83;;;;;;;;;;5056471;28;20199;-90
2021/03/07 04:11:52;;;;;;;9.27;7.80;;;;;;;;;;5055889;28;20627;-90
2021/03/07 04:14:18;;;;;;;10.63;7.47;;;;;;;;;;5056943;28;20183;-90
2021/03/07 04:16:45;;;;;;;10.00;7.43;;;;;;;;;;5054642;28;20218;-90
2021/03/07 04:19:11;;;;;;;8.20;6.83;;;;;;;;;;5056657;28;20191;-90
2021/03/07 04:21:40;;;;;;;9.63;7.47;;;;;;;;;;5055633;28;20196;-90
2021/03/07 04:24:06;;;;;;;9.33;7.30;;;;;;;;;;5056188;28;20634;-89
2021/03/07 04:26:31;;;;;;;10.53;7.30;;;;;;;;;;5055641;28;20172;-90
2021/03/07 04:28:57;;;;;;;8.30;7.37;;;;;;;;;;5054468;28;20191;-88
2021/03/07 04:31:22;;;;;;;9.77;7.50;;;;;;;;;;5055739;28;20168;-89
2021/03/07 04:33:49;;;;;;;8.87;6.40;;;;;;;;;;5055393;28;20172;-89
2021/03/07 04:36:14;;;;;;;11.40;8.07;;;;;;;;;;5055826;28;20172;-89
2021/03/07 04:38:40;;;;;;;11.17;7.80;;;;;;;;;;5055210;28;20194;-89
2021/03/07 04:41:06;;;;;;;10.57;7.77;;;;;;;;;;5055745;28;20261;-89
2021/03/07 04:43:51;;;;;;;10.80;7.73;;;;;;;;;;5054714;28;20270;-89
2021/03/07 04:46:21;;;;;;;8.47;6.90;;;;;;;;;;5056088;28;20202;-89
2021/03/07 04:48:46;;;;;;;10.30;7.27;;;;;;;;;;5055502;28;20172;-90
2021/03/07 04:51:12;;;;;;;14.63;7.87;;;;;;;;;;5055104;28;20194;-89
2021/03/07 04:53:37;;;;;;;10.67;7.63;;;;;;;;;;5055075;28;20615;-90
2021/03/07 04:56:03;;;;;;;9.67;7.80;;;;;;;;;;5055311;28;20171;-89
2021/03/07 04:58:28;;;;;;;10.07;7.60;;;;;;;;;;5055437;28;20195;-90
2021/03/07 05:00:54;;;;;;;10.87;7.67;;;;;;;;;;5055525;28;20199;-91
2021/03/07 05:03:19;;;;;;;12.50;7.73;;;;;;;;;;5054801;28;20173;-88
2021/03/07 05:05:44;;;;;;;11.13;7.73;;;;;;;;;;5057429;28;20225;-88
2021/03/07 05:08:10;;;;;;;10.53;8.40;;;;;;;;;;5056623;28;20190;-88
2021/03/07 05:10:35;;;;;;;12.00;8.40;;;;;;;;;;5056795;28;20203;-88
2021/03/07 05:13:00;;;;;;;13.83;9.27;;;;;;;;;;5055217;28;20183;-88
2021/03/07 05:15:26;;;;;;;10.57;8.50;;;;;;;;;;5054542;28;20681;-88
2021/03/07 05:17:51;;;;;;;11.20;8.60;;;;;;;;;;5054721;28;20172;-87
2021/03/07 05:20:16;;;;;;;14.03;8.77;;;;;;;;;;5054623;28;20176;-89
2021/03/07 05:22:42;;;;;;;11.90;8.60;;;;;;;;;;5054558;28;20175;-89
2021/03/07 05:25:07;;;;;;;12.40;8.70;;;;;;;;;;5054605;28;20217;-88
2021/03/07 05:27:32;;;;;;;9.73;7.63;;;;;;;;;;5055237;28;20168;-89
2021/03/07 05:29:58;;;;;;;11.23;8.23;;;;;;;;;;5054542;28;20495;-89
2021/03/07 05:32:23;;;;;;;10.90;8.03;;;;;;;;;;5055172;28;20503;-89
2021/03/07 05:34:48;;;;;;;11.10;8.37;;;;;;;;;;5054552;28;20658;-88
2021/03/07 05:37:14;;;;;;;15.17;10.03;;;;;;;;;;5054198;28;20642;-90
2021/03/07 05:39:39;;;;;;;12.63;9.37;;;;;;;;;;5054257;28;20187;-89
2021/03/07 05:42:05;;;;;;;11.67;8.50;;;;;;;;;;5054482;28;20199;-88
2021/03/07 05:44:30;;;;;;;15.00;9.83;;;;;;;;;;5054590;28;20697;-88
2021/03/07 05:46:56;;;;;;;14.03;9.03;;;;;;;;;;5054236;28;20228;-89
2021/03/07 05:49:21;;;;;;;15.10;8.53;;;;;;;;;;5054061;28;20168;-89
2021/03/07 05:51:46;;;;;;;11.57;8.37;;;;;;;;;;5053877;28;20216;-88
2021/03/07 05:54:12;;;;;;;12.73;9.03;;;;;;;;;;5054431;28;20491;-89
2021/03/07 05:56:38;;;;;;;8.07;7.20;;;;;;;;;;5053765;28;20653;-89
2021/03/07 05:59:05;;;;;;;10.53;8.10;;;;;;;;;;5053806;28;20527;-89
2021/03/07 06:01:30;;;;;;;11.40;8.43;;;;;;;;;;5053708;28;20235;-89
2021/03/07 06:04:00;;;;;;;12.97;9.07;;;;;;;;;;5053759;28;20631;-89
2021/03/07 06:06:27;;;;;;;15.47;10.53;;;;;;;;;;5053551;28;20168;-89
2021/03/07 06:09:13;;;;;;;10.63;8.63;;;;;;;;;;5053980;28;20217;-89
2021/03/07 06:11:38;;;;;;;12.37;8.87;;;;;;;;;;5053864;28;20183;-89
2021/03/07 06:14:03;;;;;;;10.70;9.10;;;;;;;;;;5053607;28;20297;-89
2021/03/07 06:16:28;;;;;;;11.63;9.00;;;;;;;;;;5052559;28;20180;-89
2021/03/07 06:19:01;;;;;;;13.07;9.70;;;;;;;;;;5054213;28;20172;-90
2021/03/07 06:21:35;;;;;;;13.23;9.17;;;;;;;;;;5052268;28;20286;-90
2021/03/07 06:24:01;;;;;;;14.47;10.07;;;;;;;;;;5054406;28;20595;-90
2021/03/07 06:26:26;;;;;;;13.73;9.47;;;;;;;;;;5053879;28;20174;-90
2021/03/07 06:29:11;;;;;;;25.67;14.93;;;;;;;;;;5053738;28;20178;-91
2021/03/07 06:31:37;;;;;;;21.47;14.27;;;;;;;;;;5053594;28;20195;-90
2021/03/07 06:34:02;;;;;;;13.67;9.83;;;;;;;;;;5053809;28;20172;-89
2021/03/07 06:36:28;;;;;;;10.50;7.97;;;;;;;;;;5053936;28;20179;-89
2021/03/07 06:38:58;;;;;;;15.33;10.07;;;;;;;;;;5053544;28;20279;-89
2021/03/07 06:41:24;;;;;;;13.17;9.07;;;;;;;;;;5054187;28;20203;-89
2021/03/07 06:43:50;;;;;;;15.57;9.77;;;;;;;;;;5054200;28;20210;-89
2021/03/07 06:46:29;;;;;;;14.97;9.27;;;;;;;;;;5053513;28;20167;-90
2021/03/07 06:48:55;;;;;;;18.13;12.03;;;;;;;;;;5053847;28;20182;-89
2021/03/07 06:51:27;;;;;;;15.47;11.70;;;;;;;;;;5053800;28;20561;-89
2021/03/07 06:53:53;;;;;;;20.53;12.93;;;;;;;;;;5053482;28;20258;-89
2021/03/07 06:56:37;;;;;;;14.47;10.40;;;;;;;;;;5053997;28;20258;-88
2021/03/07 06:59:22;;;;;;;15.73;10.90;;;;;;;;;;5053651;28;20633;-89
2021/03/07 07:01:51;;;;;;;15.27;10.10;;;;;;;;;;5053597;28;20251;-90
2021/03/07 07:04:17;;;;;;;22.03;12.10;;;;;;;;;;5051975;28;20168;-89
2021/03/07 07:06:43;;;;;;;14.00;9.30;;;;;;;;;;5053208;28;20171;-89
2021/03/07 07:09:09;;;;;;;18.80;11.93;;;;;;;;;;5051879;28;20184;-89
2021/03/07 07:11:45;;;;;;;18.03;11.00;;;;;;;;;;5053751;28;20255;-89
2021/03/07 07:14:11;;;;;;;14.00;9.70;;;;;;;;;;5053830;28;20282;-90
2021/03/07 07:16:36;;;;;;;14.50;10.03;;;;;;;;;;5053786;28;20175;-90
2021/03/07 07:19:02;;;;;;;16.80;10.17;;;;;;;;;;5057346;28;20168;-90
2021/03/07 07:21:27;;;;;;;13.50;9.17;;;;;;;;;;5056436;28;20252;-89
2021/03/07 07:23:53;;;;;;;12.07;9.20;;;;;;;;;;5055555;28;20263;-88
2021/03/07 07:26:18;;;;;;;14.80;9.83;;;;;;;;;;5057179;28;20179;-89
2021/03/07 07:28:44;;;;;;;17.97;11.13;;;;;;;;;;5051060;28;20176;-89
2021/03/07 07:31:13;;;;;;;16.03;10.47;;;;;;;;;;5045167;28;20677;-89
2021/03/07 07:33:42;;;;;;;19.73;11.93;;;;;;;;;;5045638;28;20179;-90
2021/03/07 07:36:09;;;;;;;18.27;12.73;;;;;;;;;;5045169;28;20204;-89
2021/03/07 07:38:35;;;;;;;33.40;19.93;;;;;;;;;;5046207;28;20195;-89
2021/03/07 07:41:01;;;;;;;26.33;15.87;;;;;;;;;;5037812;28;20259;-90
2021/03/07 07:43:46;;;;;;;48.17;27.90;;;;;;;;;;5036363;28;20183;-89
2021/03/07 07:46:12;;;;;;;38.00;23.17;;;;;;;;;;5036021;28;20176;-89
2021/03/07 07:48:39;;;;;;;89.63;48.87;;;;;;;;;;5036372;28;20565;-89
2021/03/07 07:51:22;;;;;;;44.10;30.40;;;;;;;;;;5036096;28;20187;-89
2021/03/07 07:53:48;;;;;;;27.27;17.33;;;;;;;;;;5036015;28;20176;-89
2021/03/07 07:56:31;;;;;;;21.27;12.40;;;;;;;;;;5036496;28;20268;-89
2021/03/07 07:58:57;;;;;;;17.50;11.57;;;;;;;;;;5041103;28;20677;-89
2021/03/07 08:01:42;;;;;;;23.90;14.70;;;;;;;;;;5044154;28;20232;-89
2021/03/07 08:04:27;;;;;;;20.27;12.77;;;;;;;;;;5044807;28;20531;-89
2021/03/07 08:06:53;;;;;;;23.90;12.77;;;;;;;;;;5046168;28;20238;-89
2021/03/07 08:09:37;;;;;;;18.47;11.60;;;;;;;;;;5044331;28;20179;-89
2021/03/07 08:12:21;;;;;;;13.17;10.77;;;;;;;;;;5043833;28;20172;-89
2021/03/07 08:14:47;;;;;;;17.07;11.13;;;;;;;;;;5036123;28;20207;-89
2021/03/07 08:17:30;;;;;;;12.20;9.53;;;;;;;;;;5035818;28;20196;-89
2021/03/07 08:19:56;;;;;;;12.33;8.40;;;;;;;;;;5035822;28;20168;-89
2021/03/07 08:22:21;;;;;;;15.13;9.80;;;;;;;;;;5035632;28;20654;-89
2021/03/07 08:24:46;;;;;;;14.97;9.97;;;;;;;;;;5035506;28;20673;-89
2021/03/07 08:27:30;;;;;;;15.17;10.43;;;;;;;;;;5035880;28;20203;-89
2021/03/07 08:29:55;;;;;;;12.03;9.13;;;;;;;;;;5035503;28;20165;-89
2021/03/07 08:32:24;;;;;;;12.17;9.17;;;;;;;;;;5035599;28;20505;-89
2021/03/07 08:34:49;;;;;;;11.60;8.53;;;;;;;;;;5036058;28;20185;-90
2021/03/07 08:37:15;;;;;;;10.90;8.83;;;;;;;;;;5035233;28;20168;-88
2021/03/07 08:39:40;;;;;;;14.30;10.47;;;;;;;;;;5035063;28;20655;-89
2021/03/07 08:42:06;;;;;;;11.60;8.93;;;;;;;;;;5035483;28;20211;-89
2021/03/07 08:44:31;;;;;;;13.00;9.83;;;;;;;;;;5035142;28;20180;-89
2021/03/07 08:46:56;;;;;;;18.23;10.67;;;;;;;;;;5035594;28;20556;-88
2021/03/07 08:49:24;;;;;;;14.03;9.83;;;;;;;;;;5035208;28;20168;-89
2021/03/07 08:51:50;;;;;;;15.93;11.23;;;;;;;;;;5035351;28;20216;-89
2021/03/07 08:54:20;;;;;;;13.83;9.07;;;;;;;;;;5035058;28;20169;-89
2021/03/07 08:56:45;;;;;;;11.93;9.03;;;;;;;;;;5035156;28;20175;-89
2021/03/07 08:59:11;;;;;;;14.97;10.27;;;;;;;;;;5034548;28;20177;-88
2021/03/07 09:01:36;;;;;;;17.27;11.63;;;;;;;;;;5034128;28;20327;-88
2021/03/07 09:04:05;;;;;;;14.90;10.83;;;;;;;;;;5035247;28;20258;-89
2021/03/07 09:06:40;;;;;;;11.40;9.60;;;;;;;;;;5034695;28;20662;-89
2021/03/07 09:09:12;;;;;;;14.13;10.70;;;;;;;;;;5034879;28;20164;-89
2021/03/07 09:11:45;;;;;;;22.73;15.67;;;;;;;;;;5034973;28;20586;-89
2021/03/07 09:14:11;;;;;;;59.37;30.13;;;;;;;;;;5034439;28;20753;-89
2021/03/07 09:16:40;;;;;;;115.87;42.77;;;;;;;;;;5033685;28;20180;-89
2021/03/07 09:19:17;;;;;;;86.20;35.67;;;;;;;;;;5034383;28;20627;-88
2021/03/07 09:21:42;;;;;;;149.03;51.50;;;;;;;;;;5033426;28;20207;-89
2021/03/07 09:24:09;;;;;;;33.30;16.33;;;;;;;;;;5034157;28;20275;-89
2021/03/07 09:26:35;;;;;;;29.10;16.40;;;;;;;;;;5040084;28;20321;-89
2021/03/07 09:29:02;;;;;;;90.43;33.40;;;;;;;;;;5039562;28;20651;-90
2021/03/07 09:31:31;;;;;;;51.57;25.10;;;;;;;;;;5032960;28;20271;-91
2021/03/07 09:33:58;;;;;;;19.50;12.27;;;;;;;;;;5034403;28;20161;-91
2021/03/07 09:36:24;;;;;;;22.13;15.80;;;;;;;;;;5034304;28;20172;-90
2021/03/07 09:38:51;;;;;;;21.80;14.27;;;;;;;;;;5033975;28;20211;-90
2021/03/07 09:41:27;;;;;;;27.40;16.83;;;;;;;;;;5033426;28;20192;-91
2021/03/07 09:43:53;;;;;;;25.30;14.93;;;;;;;;;;5033220;28;20180;-90
2021/03/07 09:46:18;;;;;;;22.97;15.03;;;;;;;;;;5034035;28;20701;-89
2021/03/07 09:48:45;;;;;;;19.40;13.60;;;;;;;;;;5032774;28;20178;-93
2021/03/07 09:51:12;;;;;;;22.47;15.20;;;;;;;;;;5033018;28;20183;-88
2021/03/07 09:53:38;;;;;;;24.93;16.97;;;;;;;;;;5034103;28;20166;-89
2021/03/07 09:56:04;;;;;;;19.87;13.53;;;;;;;;;;5033069;28;20184;-89
2021/03/07 09:58:38;;;;;;;17.60;12.37;;;;;;;;;;5032631;28;20238;-89
2021/03/07 10:01:07;;;;;;;31.27;17.93;;;;;;;;;;5031942;28;20196;-88
2021/03/07 10:03:33;;;;;;;38.43;23.03;;;;;;;;;;5033498;28;20535;-88
2021/03/07 10:06:11;;;;;;;25.13;16.93;;;;;;;;;;5033894;28;20172;-89
2021/03/07 10:08:38;;;;;;;27.13;17.17;;;;;;;;;;5033916;28;20222;-89
2021/03/07 10:11:09;;;;;;;20.73;13.97;;;;;;;;;;5033744;28;20180;-91
2021/03/07 10:13:34;;;;;;;21.47;15.10;;;;;;;;;;5032722;28;20519;-90
2021/03/07 10:15:59;;;;;;;34.23;20.57;;;;;;;;;;5032724;28;20185;-89
2021/03/07 10:18:25;;;;;;;27.30;18.37;;;;;;;;;;5033922;28;20176;-90
2021/03/07 10:20:51;;;;;;;26.80;16.97;;;;;;;;;;5033547;28;20198;-89
2021/03/07 10:23:17;;;;;;;30.90;19.50;;;;;;;;;;5033437;28;20196;-89
2021/03/07 10:25:43;;;;;;;21.27;14.73;;;;;;;;;;5033384;28;20539;-89
2021/03/07 10:28:29;;;;;;;27.60;16.73;;;;;;;;;;5033321;28;20176;-89
2021/03/07 10:30:56;;;;;;;27.47;17.70;;;;;;;;;;5032992;28;20559;-90
2021/03/07 10:33:26;;;;;;;23.40;16.00;;;;;;;;;;5038495;28;20183;-89
2021/03/07 10:36:00;;;;;;;18.27;12.03;;;;;;;;;;5054363;28;20183;-89
2021/03/07 10:38:25;;;;;;;20.57;12.60;;;;;;;;;;5066805;28;20205;-89
2021/03/07 10:40:51;;;;;;;17.77;12.87;;;;;;;;;;5062526;28;20195;-89
2021/03/07 10:43:16;;;;;;;17.90;12.57;;;;;;;;;;5060806;28;20183;-89
2021/03/07 10:45:43;;;;;;;18.70;12.80;;;;;;;;;;5066573;28;20184;-89
2021/03/07 10:48:10;;;;;;;18.07;13.17;;;;;;;;;;5054221;28;20178;-89
2021/03/07 10:50:36;;;;;;;19.03;13.10;;;;;;;;;;5057174;28;20623;-89
2021/03/07 10:53:01;;;;;;;18.10;12.97;;;;;;;;;;5058564;28;20171;-89
2021/03/07 10:55:27;;;;;;;20.33;14.80;;;;;;;;;;5054643;28;20246;-89
2021/03/07 10:57:52;;;;;;;21.27;13.90;;;;;;;;;;5055148;28;20172;-89
2021/03/07 11:00:18;;;;;;;16.70;12.30;;;;;;;;;;5061128;28;20171;-89
2021/03/07 11:02:44;;;;;;;19.90;13.77;;;;;;;;;;5057340;28;20226;-89
2021/03/07 11:05:13;;;;;;;15.60;12.20;;;;;;;;;;5066339;28;20171;-88
2021/03/07 11:07:39;;;;;;;17.87;13.10;;;;;;;;;;5072413;28;20645;-88
2021/03/07 11:10:05;;;;;;;16.77;12.33;;;;;;;;;;5059048;28;20229;-88
2021/03/07 11:12:31;;;;;;;18.10;13.20;;;;;;;;;;5070953;28;20172;-88
2021/03/07 11:14:56;;;;;;;17.20;12.53;;;;;;;;;;5055163;28;20194;-89
2021/03/07 11:17:21;;;;;;;16.03;12.13;;;;;;;;;;5052702;28;20266;-88
2021/03/07 11:19:48;;;;;;;19.37;13.27;;;;;;;;;;5058135;28;20168;-89
2021/03/07 11:22:14;;;;;;;19.70;13.43;;;;;;;;;;5057626;28;20212;-90
2021/03/07 11:24:39;;;;;;;20.87;13.70;;;;;;;;;;5071232;28;20212;-88
2021/03/07 11:27:05;;;;;;;18.87;12.63;;;;;;;;;;5055960;28;20171;-89
2021/03/07 11:29:30;;;;;;;17.07;12.37;;;;;;;;;;5063426;28;20182;-88
2021/03/07 11:31:55;;;;;;;19.87;14.47;;;;;;;;;;5071627;28;20265;-88
2021/03/07 11:34:21;;;;;;;19.43;11.50;;;;;;;;;;5059665;28;20307;-88
2021/03/07 11:36:47;;;;;;;30.23;20.13;;;;;;;;;;5070190;28;20263;-88
2021/03/07 11:39:13;;;;;;;35.13;21.83;;;;;;;;;;5066054;28;20199;-89
2021/03/07 11:41:38;;;;;;;25.87;16.57;;;;;;;;;;5070153;28;20230;-89
2021/03/07 11:44:03;;;;;;;21.83;15.13;;;;;;;;;;5058140;28;20637;-87
2021/03/07 11:46:29;;;;;;;29.33;16.13;;;;;;;;;;5062815;28;20179;-88
2021/03/07 11:48:54;;;;;;;22.13;14.40;;;;;;;;;;5059201;28;20179;-88
2021/03/07 11:51:20;;;;;;;24.97;16.33;;;;;;;;;;5065818;28;20608;-88
2021/03/07 11:53:45;;;;;;;24.07;15.63;;;;;;;;;;5061578;28;20176;-88
2021/03/07 11:56:10;;;;;;;23.30;15.67;;;;;;;;;;5072789;28;20175;-89
2021/03/07 11:58:36;;;;;;;38.00;24.07;;;;;;;;;;5060050;28;20175;-88
2021/03/07 12:01:01;;;;;;;131.73;53.30;;;;;;;;;;5067275;28;20233;-88
2021/03/07 12:03:26;;;;;;;40.50;21.93;;;;;;;;;;5054378;28;20184;-88
2021/03/07 12:05:52;;;;;;;41.57;23.43;;;;;;;;;;5046877;28;20195;-88
2021/03/07 12:08:17;;;;;;;39.03;22.60;;;;;;;;;;5035653;28;20179;-88
2021/03/07 12:10:42;;;;;;;23.63;16.33;;;;;;;;;;5068349;28;20556;-89
2021/03/07 12:13:08;;;;;;;41.43;26.53;;;;;;;;;;5055612;28;20534;-88
2021/03/07 12:15:33;;;;;;;24.27;16.33;;;;;;;;;;5055252;28;20179;-88
2021/03/07 12:17:58;;;;;;;21.30;14.27;;;;;;;;;;5054804;28;20271;-88
2021/03/07 12:20:24;;;;;;;20.37;14.13;;;;;;;;;;5055511;28;20223;-88
2021/03/07 12:22:49;;;;;;;18.10;13.03;;;;;;;;;;5052606;28;20282;-87
2021/03/07 12:25:15;;;;;;;19.97;14.60;;;;;;;;;;5052590;28;20186;-88
2021/03/07 12:27:40;;;;;;;16.27;12.37;;;;;;;;;;5052491;28;20176;-88
2021/03/07 12:30:06;;;;;;;18.00;13.87;;;;;;;;;;5051599;28;20172;-86
2021/03/07 12:32:32;;;;;;;26.40;17.87;;;;;;;;;;5053412;28;20653;-87
2021/03/07 12:34:57;;;;;;;13.67;10.97;;;;;;;;;;5053650;28;20168;-86
2021/03/07 12:37:22;;;;;;;17.47;12.70;;;;;;;;;;5053759;28;20597;-87
2021/03/07 12:39:48;;;;;;;17.10;11.53;;;;;;;;;;5053863;28;20201;-87
2021/03/07 12:42:15;;;;;;;16.93;12.07;;;;;;;;;;5051530;28;20199;-86
2021/03/07 12:44:40;;;;;;;13.77;11.00;;;;;;;;;;5053810;28;20171;-87
2021/03/07 12:47:05;;;;;;;18.17;11.97;;;;;;;;;;5053282;28;20234;-87
2021/03/07 12:49:31;;;;;;;17.17;11.73;;;;;;;;;;5053144;28;20221;-86
2021/03/07 12:51:56;;;;;;;19.20;13.27;;;;;;;;;;5053400;28;20179;-87
2021/03/07 12:54:22;;;;;;;17.00;12.70;;;;;;;;;;5053435;28;20198;-86
2021/03/07 12:56:47;;;;;;;20.23;12.00;;;;;;;;;;5051308;28;20358;-86
2021/03/07 12:59:12;;;;;;;19.13;12.20;;;;;;;;;;5050886;28;20186;-87
2021/03/07 13:01:38;;;;;;;15.23;11.40;;;;;;;;;;5052751;28;20243;-87
2021/03/07 13:04:03;;;;;;;15.37;12.27;;;;;;;;;;5052592;28;20534;-87
2021/03/07 13:06:28;;;;;;;17.73;12.00;;;;;;;;;;5053123;28;20171;-86
2021/03/07 13:08:54;;;;;;;15.77;11.47;;;;;;;;;;5053530;28;20666;-86
2021/03/07 13:11:19;;;;;;;14.67;10.23;;;;;;;;;;5053562;28;20259;-86
2021/03/07 13:13:44;;;;;;;15.10;11.30;;;;;;;;;;5054348;28;20279;-87
2021/03/07 13:16:10;;;;;;;15.37;10.80;;;;;;;;;;5054218;28;20263;-87
2021/03/07 13:18:35;;;;;;;19.37;14.10;;;;;;;;;;5053302;28;20203;-87
2021/03/07 13:21:02;;;;;;;18.20;11.80;;;;;;;;;;5054154;28;20199;-87
2021/03/07 13:23:27;;;;;;;15.33;10.53;;;;;;;;;;5054296;28;20226;-87
2021/03/07 13:25:53;;;;;;;15.73;11.30;;;;;;;;;;5054116;28;20615;-86
2021/03/07 13:28:18;;;;;;;15.67;11.13;;;;;;;;;;5051927;28;20207;-87
2021/03/07 13:30:44;;;;;;;15.67;11.60;;;;;;;;;;5054153;28;20643;-88
2021/03/07 13:33:09;;;;;;;21.47;14.67;;;;;;;;;;5054684;28;20525;-86
2021/03/07 13:35:36;;;;;;;21.10;14.27;;;;;;;;;;5053761;28;20196;-87
2021/03/07 13:38:01;;;;;;;16.60;11.27;;;;;;;;;;5050394;28;20171;-86
2021/03/07 13:40:27;;;;;;;28.83;16.67;;;;;;;;;;5053546;28;20226;-86
2021/03/07 13:42:57;;;;;;;24.60;14.93;;;;;;;;;;5053052;28;20278;-86
2021/03/07 13:45:23;;;;;;;85.80;35.60;;;;;;;;;;5053261;28;20182;-86
2021/03/07 13:47:48;;;;;;;47.80;24.73;;;;;;;;;;5053255;28;20223;-86
2021/03/07 13:50:13;;;;;;;19.60;12.87;;;;;;;;;;5052485;28;20167;-86
2021/03/07 13:52:39;;;;;;;20.70;12.53;;;;;;;;;;5053947;28;20183;-86
2021/03/07 13:55:06;;;;;;;19.20;12.60;;;;;;;;;;5052895;28;20230;-86
2021/03/07 13:57:31;;;;;;;17.37;11.47;;;;;;;;;;5053816;28;20254;-85
2021/03/07 13:59:57;;;;;;;20.93;12.40;;;;;;;;;;5053660;28;20198;-85
2021/03/07 14:02:22;;;;;;;18.23;11.90;;;;;;;;;;5053274;28;20267;-85
2021/03/07 14:04:47;;;;;;;22.57;12.70;;;;;;;;;;5051472;28;20172;-86
2021/03/07 14:07:13;;;;;;;20.27;13.23;;;;;;;;;;5050526;28;20912;-85
2021/03/07 14:09:38;;;;;;;20.07;12.47;;;;;;;;;;5051758;28;20250;-86
2021/03/07 14:12:04;;;;;;;14.77;11.07;;;;;;;;;;5048925;28;20213;-85
2021/03/07 14:14:32;;;;;;;19.63;13.10;;;;;;;;;;5045121;28;20565;-86
2021/03/07 14:16:57;;;;;;;21.73;11.40;;;;;;;;;;5045091;28;20179;-87
2021/03/07 14:19:23;;;;;;;21.90;12.80;;;;;;;;;;5041888;28;20172;-87
2021/03/07 14:21:48;;;;;;;22.17;12.77;;;;;;;;;;5043894;28;20204;-86